VDA252 ULOO-ULLI
Flight info
| Callsign | VDA252 |
|---|---|
| Flight time | 0h 36m |
| Altitude | 17000 |
| Route | IRBUG N743 KOLET |
| Aircraft | IL76/H-SDIRW/C |
Departure
| Time | 2026-04-16 06:18 |
|---|---|
| Airport | Princess Olga Pskov International Airport (ULOO) |
Arrival
| Time | 2026-04-16 06:55 |
|---|---|
| Airport | Pulkovo Airport (ULLI) |
| Time | Latitude | Longitude | Altitude | Speed | Heading |
|---|---|---|---|---|---|
| 2026-04-16 06:09 | 57.78896 | 28.39134 | 161 ft | 0 kts | 196° |
| 2026-04-16 06:15 | 57.78874 | 28.39121 | 161 ft | 5 kts | 197° |
| 2026-04-16 06:15 | 57.78833 | 28.39113 | 161 ft | 6 kts | 154° |
| 2026-04-16 06:15 | 57.78804 | 28.39192 | 160 ft | 9 kts | 110° |
| 2026-04-16 06:15 | 57.78818 | 28.39304 | 160 ft | 10 kts | 33° |
| 2026-04-16 06:16 | 57.78892 | 28.39354 | 160 ft | 12 kts | 17° |
| 2026-04-16 06:16 | 57.78987 | 28.39410 | 160 ft | 16 kts | 17° |
| 2026-04-16 06:16 | 57.79110 | 28.39483 | 161 ft | 20 kts | 18° |
| 2026-04-16 06:16 | 57.79246 | 28.39567 | 161 ft | 17 kts | 17° |
| 2026-04-16 06:17 | 57.79313 | 28.39666 | 161 ft | 12 kts | 92° |
| 2026-04-16 06:17 | 57.79285 | 28.39836 | 160 ft | 15 kts | 109° |
| 2026-04-16 06:17 | 57.79236 | 28.40020 | 161 ft | 15 kts | 146° |
| 2026-04-16 06:17 | 57.79102 | 28.39975 | 160 ft | 33 kts | 198° |
| 2026-04-16 06:18 | 57.78677 | 28.39731 | 158 ft | 97 kts | 197° |
| 2026-04-16 06:18 | 57.77842 | 28.39216 | 158 ft | 152 kts | 195° |
| 2026-04-16 06:18 | 57.76757 | 28.38592 | 506 ft | 165 kts | 194° |
| 2026-04-16 06:18 | 57.75652 | 28.37959 | 912 ft | 169 kts | 194° |
| 2026-04-16 06:19 | 57.74432 | 28.37718 | 962 ft | 191 kts | 163° |
| 2026-04-16 06:19 | 57.73432 | 28.39331 | 1170 ft | 198 kts | 114° |
| 2026-04-16 06:19 | 57.73393 | 28.41811 | 1639 ft | 197 kts | 71° |
| 2026-04-16 06:19 | 57.74313 | 28.43642 | 2086 ft | 200 kts | 28° |
| 2026-04-16 06:20 | 57.75542 | 28.44479 | 2602 ft | 201 kts | 26° |
| 2026-04-16 06:20 | 57.76841 | 28.45673 | 3142 ft | 212 kts | 27° |
| 2026-04-16 06:20 | 57.78218 | 28.46943 | 3635 ft | 235 kts | 30° |
| 2026-04-16 06:20 | 57.79745 | 28.48441 | 4255 ft | 260 kts | 29° |
| 2026-04-16 06:21 | 57.81388 | 28.50030 | 4818 ft | 271 kts | 30° |
| 2026-04-16 06:21 | 57.83052 | 28.51762 | 5371 ft | 274 kts | 30° |
| 2026-04-16 06:21 | 57.84742 | 28.53414 | 5918 ft | 278 kts | 29° |
| 2026-04-16 06:21 | 57.86446 | 28.55160 | 6478 ft | 281 kts | 31° |
| 2026-04-16 06:22 | 57.88185 | 28.56932 | 7042 ft | 285 kts | 28° |
| 2026-04-16 06:22 | 57.89931 | 28.58668 | 7603 ft | 289 kts | 30° |
| 2026-04-16 06:22 | 57.91698 | 28.60523 | 8176 ft | 293 kts | 28° |
| 2026-04-16 06:22 | 57.93516 | 28.62308 | 8753 ft | 297 kts | 28° |
| 2026-04-16 06:23 | 57.95323 | 28.64213 | 9337 ft | 300 kts | 28° |
| 2026-04-16 06:23 | 57.97190 | 28.66066 | 9919 ft | 304 kts | 27° |
| 2026-04-16 06:23 | 57.99030 | 28.67973 | 10460 ft | 306 kts | 28° |
| 2026-04-16 06:23 | 58.00903 | 28.69889 | 11018 ft | 308 kts | 26° |
| 2026-04-16 06:24 | 58.02798 | 28.71799 | 11579 ft | 311 kts | 27° |
| 2026-04-16 06:24 | 58.04699 | 28.73798 | 12144 ft | 312 kts | 25° |
| 2026-04-16 06:24 | 58.06627 | 28.75705 | 12724 ft | 314 kts | 26° |
| 2026-04-16 06:24 | 58.08539 | 28.77733 | 13293 ft | 316 kts | 26° |
| 2026-04-16 06:25 | 58.10554 | 28.79262 | 13920 ft | 310 kts | 3° |
| 2026-04-16 06:25 | 58.12676 | 28.79216 | 14677 ft | 307 kts | 354° |
| 2026-04-16 06:25 | 58.14814 | 28.79100 | 15197 ft | 312 kts | 352° |
| 2026-04-16 06:25 | 58.16980 | 28.78650 | 15773 ft | 313 kts | 350° |
| 2026-04-16 06:26 | 58.19136 | 28.78527 | 16205 ft | 319 kts | 4° |
| 2026-04-16 06:26 | 58.21316 | 28.79610 | 16708 ft | 324 kts | 10° |
| 2026-04-16 06:26 | 58.23490 | 28.80473 | 17033 ft | 325 kts | 9° |
| 2026-04-16 06:26 | 58.25684 | 28.81583 | 17174 ft | 327 kts | 11° |
| 2026-04-16 06:27 | 58.27889 | 28.82578 | 17124 ft | 326 kts | 10° |
| 2026-04-16 06:27 | 58.30058 | 28.83684 | 17130 ft | 325 kts | 11° |
| 2026-04-16 06:27 | 58.32266 | 28.84734 | 17127 ft | 324 kts | 10° |
| 2026-04-16 06:27 | 58.34442 | 28.85790 | 17125 ft | 325 kts | 12° |
| 2026-04-16 06:28 | 58.36636 | 28.86914 | 17125 ft | 325 kts | 10° |
| 2026-04-16 06:28 | 58.38827 | 28.87932 | 17129 ft | 326 kts | 11° |
| 2026-04-16 06:28 | 58.41000 | 28.89058 | 17134 ft | 326 kts | 11° |
| 2026-04-16 06:28 | 58.43193 | 28.90119 | 17138 ft | 325 kts | 10° |
| 2026-04-16 06:29 | 58.45390 | 28.91190 | 17133 ft | 327 kts | 12° |
| 2026-04-16 06:29 | 58.47577 | 28.92325 | 17135 ft | 326 kts | 11° |
| 2026-04-16 06:29 | 58.49766 | 28.93352 | 17139 ft | 327 kts | 11° |
| 2026-04-16 06:29 | 58.51972 | 28.94499 | 17144 ft | 327 kts | 12° |
| 2026-04-16 06:30 | 58.54143 | 28.95562 | 17146 ft | 326 kts | 10° |
| 2026-04-16 06:30 | 58.56362 | 28.96646 | 17143 ft | 328 kts | 12° |
| 2026-04-16 06:30 | 58.58551 | 28.97792 | 17145 ft | 327 kts | 11° |
| 2026-04-16 06:30 | 58.60739 | 28.98825 | 17150 ft | 328 kts | 11° |
| 2026-04-16 06:31 | 58.62937 | 28.99970 | 17155 ft | 328 kts | 12° |
| 2026-04-16 06:31 | 58.65137 | 29.01059 | 17151 ft | 324 kts | 10° |
| 2026-04-16 06:31 | 58.67244 | 29.02096 | 17124 ft | 315 kts | 12° |
| 2026-04-16 06:31 | 58.69356 | 29.03202 | 17125 ft | 303 kts | 10° |
| 2026-04-16 06:32 | 58.71370 | 29.04175 | 17119 ft | 292 kts | 11° |
| 2026-04-16 06:32 | 58.73284 | 29.05176 | 17113 ft | 281 kts | 11° |
| 2026-04-16 06:32 | 58.75147 | 29.06089 | 16981 ft | 275 kts | 10° |
| 2026-04-16 06:32 | 58.76998 | 29.07034 | 16736 ft | 274 kts | 11° |
| 2026-04-16 06:33 | 58.78818 | 29.07951 | 16513 ft | 272 kts | 10° |
| 2026-04-16 06:33 | 58.80664 | 29.08868 | 16283 ft | 271 kts | 11° |
| 2026-04-16 06:33 | 58.82468 | 29.09803 | 16058 ft | 269 kts | 10° |
| 2026-04-16 06:33 | 58.84251 | 29.10683 | 15839 ft | 267 kts | 10° |
| 2026-04-16 06:34 | 58.86039 | 29.11604 | 15617 ft | 265 kts | 11° |
| 2026-04-16 06:34 | 58.87827 | 29.12509 | 15395 ft | 263 kts | 10° |
| 2026-04-16 06:34 | 58.89574 | 29.13385 | 15177 ft | 262 kts | 11° |
| 2026-04-16 06:34 | 58.91341 | 29.14306 | 14956 ft | 260 kts | 10° |
| 2026-04-16 06:35 | 58.93069 | 29.15166 | 14742 ft | 258 kts | 10° |
| 2026-04-16 06:35 | 58.94797 | 29.16063 | 14527 ft | 256 kts | 10° |
| 2026-04-16 06:35 | 58.96513 | 29.16934 | 14304 ft | 254 kts | 9° |
| 2026-04-16 06:35 | 58.98211 | 29.17793 | 14091 ft | 253 kts | 10° |
| 2026-04-16 06:36 | 58.99905 | 29.18687 | 13875 ft | 251 kts | 11° |
| 2026-04-16 06:36 | 59.01567 | 29.19638 | 13676 ft | 249 kts | 11° |
| 2026-04-16 06:36 | 59.03205 | 29.20569 | 13465 ft | 247 kts | 11° |
| 2026-04-16 06:36 | 59.04845 | 29.21505 | 13253 ft | 245 kts | 11° |
| 2026-04-16 06:37 | 59.06473 | 29.22451 | 13042 ft | 243 kts | 11° |
| 2026-04-16 06:37 | 59.08094 | 29.23366 | 12832 ft | 241 kts | 11° |
| 2026-04-16 06:37 | 59.09700 | 29.24307 | 12622 ft | 240 kts | 11° |
| 2026-04-16 06:37 | 59.11293 | 29.25215 | 12371 ft | 240 kts | 11° |
| 2026-04-16 06:38 | 59.12892 | 29.26135 | 12081 ft | 242 kts | 12° |
| 2026-04-16 06:38 | 59.14521 | 29.27087 | 11795 ft | 244 kts | 11° |
| 2026-04-16 06:38 | 59.16158 | 29.28012 | 11508 ft | 246 kts | 12° |
| 2026-04-16 06:38 | 59.17807 | 29.28978 | 11232 ft | 248 kts | 13° |
| 2026-04-16 06:39 | 59.19452 | 29.29928 | 10952 ft | 250 kts | 12° |
| 2026-04-16 06:39 | 59.21115 | 29.30878 | 10675 ft | 252 kts | 13° |
| 2026-04-16 06:39 | 59.22797 | 29.31878 | 10403 ft | 254 kts | 13° |
| 2026-04-16 06:39 | 59.24501 | 29.32850 | 10126 ft | 255 kts | 13° |
| 2026-04-16 06:40 | 59.26193 | 29.33841 | 9862 ft | 257 kts | 14° |
| 2026-04-16 06:40 | 59.27919 | 29.34860 | 9591 ft | 259 kts | 14° |
| 2026-04-16 06:40 | 59.29657 | 29.35848 | 9322 ft | 260 kts | 14° |
| 2026-04-16 06:40 | 59.31367 | 29.36874 | 9069 ft | 261 kts | 15° |
| 2026-04-16 06:41 | 59.33125 | 29.37894 | 8803 ft | 263 kts | 14° |
| 2026-04-16 06:41 | 59.34886 | 29.38909 | 8544 ft | 264 kts | 16° |
| 2026-04-16 06:41 | 59.36633 | 29.39967 | 8293 ft | 265 kts | 15° |
| 2026-04-16 06:41 | 59.38390 | 29.40967 | 8041 ft | 266 kts | 15° |
| 2026-04-16 06:42 | 59.40179 | 29.42031 | 7797 ft | 266 kts | 17° |
| 2026-04-16 06:42 | 59.41952 | 29.43091 | 7570 ft | 266 kts | 16° |
| 2026-04-16 06:42 | 59.43727 | 29.44100 | 7344 ft | 266 kts | 17° |
| 2026-04-16 06:42 | 59.45482 | 29.45172 | 7131 ft | 265 kts | 17° |
| 2026-04-16 06:43 | 59.47240 | 29.46191 | 6912 ft | 265 kts | 16° |
| 2026-04-16 06:43 | 59.48986 | 29.47212 | 6698 ft | 264 kts | 18° |
| 2026-04-16 06:43 | 59.50740 | 29.48285 | 6483 ft | 263 kts | 17° |
| 2026-04-16 06:43 | 59.52496 | 29.49284 | 6269 ft | 263 kts | 17° |
| 2026-04-16 06:44 | 59.54241 | 29.50353 | 6068 ft | 261 kts | 18° |
| 2026-04-16 06:44 | 59.55970 | 29.51368 | 5861 ft | 260 kts | 17° |
| 2026-04-16 06:44 | 59.57719 | 29.52393 | 5657 ft | 259 kts | 19° |
| 2026-04-16 06:44 | 59.59434 | 29.53447 | 5457 ft | 258 kts | 17° |
| 2026-04-16 06:45 | 59.61135 | 29.54415 | 5258 ft | 257 kts | 18° |
| 2026-04-16 06:45 | 59.62841 | 29.55475 | 5066 ft | 255 kts | 18° |
| 2026-04-16 06:45 | 59.64532 | 29.56453 | 4870 ft | 254 kts | 17° |
| 2026-04-16 06:45 | 59.66227 | 29.57475 | 4678 ft | 252 kts | 19° |
| 2026-04-16 06:46 | 59.67873 | 29.58506 | 4486 ft | 249 kts | 24° |
| 2026-04-16 06:46 | 59.69290 | 29.60341 | 4403 ft | 235 kts | 43° |
| 2026-04-16 06:46 | 59.70572 | 29.62247 | 4292 ft | 229 kts | 37° |
| 2026-04-16 06:46 | 59.71812 | 29.64151 | 4154 ft | 223 kts | 40° |
| 2026-04-16 06:47 | 59.73034 | 29.65990 | 3976 ft | 220 kts | 41° |
| 2026-04-16 06:47 | 59.74223 | 29.67889 | 3766 ft | 220 kts | 41° |
| 2026-04-16 06:47 | 59.75433 | 29.69773 | 3554 ft | 220 kts | 41° |
| 2026-04-16 06:47 | 59.76617 | 29.71679 | 3338 ft | 221 kts | 42° |
| 2026-04-16 06:48 | 59.77829 | 29.73608 | 3126 ft | 221 kts | 41° |
| 2026-04-16 06:48 | 59.79009 | 29.75514 | 2979 ft | 216 kts | 49° |
| 2026-04-16 06:48 | 59.79795 | 29.77871 | 2949 ft | 200 kts | 64° |
| 2026-04-16 06:48 | 59.80553 | 29.80158 | 2878 ft | 192 kts | 60° |
| 2026-04-16 06:49 | 59.81239 | 29.82369 | 2776 ft | 185 kts | 61° |
| 2026-04-16 06:49 | 59.81915 | 29.84506 | 2664 ft | 183 kts | 62° |
| 2026-04-16 06:49 | 59.82576 | 29.86671 | 2542 ft | 180 kts | 62° |
| 2026-04-16 06:49 | 59.83223 | 29.88761 | 2406 ft | 175 kts | 62° |
| 2026-04-16 06:50 | 59.83841 | 29.90807 | 2260 ft | 171 kts | 62° |
| 2026-04-16 06:50 | 59.84451 | 29.92804 | 2223 ft | 168 kts | 62° |
| 2026-04-16 06:50 | 59.84956 | 29.94896 | 2213 ft | 167 kts | 85° |
| 2026-04-16 06:50 | 59.84887 | 29.97163 | 2338 ft | 162 kts | 97° |
| 2026-04-16 06:51 | 59.84711 | 29.99328 | 2257 ft | 155 kts | 110° |
| 2026-04-16 06:51 | 59.84388 | 30.01353 | 2226 ft | 152 kts | 107° |
| 2026-04-16 06:51 | 59.84096 | 30.03364 | 2271 ft | 150 kts | 108° |
| 2026-04-16 06:51 | 59.83801 | 30.05375 | 2223 ft | 153 kts | 108° |
| 2026-04-16 06:52 | 59.83498 | 30.07424 | 2196 ft | 152 kts | 108° |
| 2026-04-16 06:52 | 59.83210 | 30.09427 | 2112 ft | 144 kts | 107° |
| 2026-04-16 06:52 | 59.82967 | 30.11233 | 1614 ft | 131 kts | 106° |
| 2026-04-16 06:52 | 59.82758 | 30.12933 | 994 ft | 132 kts | 102° |
| 2026-04-16 06:53 | 59.82657 | 30.14878 | 717 ft | 146 kts | 97° |
| 2026-04-16 06:53 | 59.82426 | 30.16732 | 1073 ft | 138 kts | 112° |
| 2026-04-16 06:53 | 59.82002 | 30.18520 | 1152 ft | 143 kts | 113° |
| 2026-04-16 06:53 | 59.81668 | 30.20362 | 895 ft | 144 kts | 109° |
| 2026-04-16 06:54 | 59.81365 | 30.22162 | 479 ft | 134 kts | 108° |
| 2026-04-16 06:54 | 59.81084 | 30.23915 | 178 ft | 133 kts | 108° |
| 2026-04-16 06:54 | 59.80817 | 30.25612 | 92 ft | 118 kts | 107° |
| 2026-04-16 06:54 | 59.80636 | 30.26912 | 91 ft | 80 kts | 107° |
| 2026-04-16 06:55 | 59.80490 | 30.27840 | 91 ft | 62 kts | 108° |
| 2026-04-16 06:55 | 59.80371 | 30.28599 | 91 ft | 53 kts | 107° |
| 2026-04-16 06:55 | 59.80271 | 30.29255 | 91 ft | 46 kts | 107° |
| 2026-04-16 06:55 | 59.80196 | 30.29720 | 91 ft | 28 kts | 106° |
| 2026-04-16 06:56 | 59.80249 | 30.30026 | 91 ft | 22 kts | 49° |
| 2026-04-16 06:56 | 59.80338 | 30.30228 | 91 ft | 16 kts | 49° |
| 2026-04-16 06:56 | 59.80386 | 30.30387 | 91 ft | 10 kts | 99° |
| 2026-04-16 06:56 | 59.80353 | 30.30467 | 91 ft | 5 kts | 137° |
| 2026-04-16 06:57 | 59.80335 | 30.30507 | 91 ft | 2 kts | 118° |
| 2026-04-16 06:57 | 59.80331 | 30.30543 | 91 ft | 2 kts | 89° |
| 2026-04-16 06:57 | 59.80342 | 30.30597 | 91 ft | 5 kts | 51° |
| 2026-04-16 06:57 | 59.80386 | 30.30618 | 91 ft | 8 kts | 341° |
| 2026-04-16 06:58 | 59.80416 | 30.30577 | 91 ft | 2 kts | 320° |
| 2026-04-16 06:58 | 59.80421 | 30.30570 | 91 ft | 0 kts | 320° |